sensor_id;sensor_type;location;lat;lon;timestamp;temperature;humidity
65854;DHT22;52627;48.838;2.402;2022-09-09T00:02:05;18.35;67.60
65854;DHT22;52627;48.838;2.402;2022-09-09T00:08:15;18.30;67.60
65854;DHT22;52627;48.838;2.402;2022-09-09T00:10:51;18.27;67.61
65854;DHT22;52627;48.838;2.402;2022-09-09T00:13:37;18.26;67.65
65854;DHT22;52627;48.838;2.402;2022-09-09T00:16:21;18.23;67.62
65854;DHT22;52627;48.838;2.402;2022-09-09T00:19:10;18.22;67.63
65854;DHT22;52627;48.838;2.402;2022-09-09T00:21:52;18.21;67.70
65854;DHT22;52627;48.838;2.402;2022-09-09T00:24:33;18.20;67.70
65854;DHT22;52627;48.838;2.402;2022-09-09T00:27:27;18.20;67.70
65854;DHT22;52627;48.838;2.402;2022-09-09T00:33:00;18.16;67.80
65854;DHT22;52627;48.838;2.402;2022-09-09T00:35:32;18.14;67.84
65854;DHT22;52627;48.838;2.402;2022-09-09T00:38:14;18.13;67.90
65854;DHT22;52627;48.838;2.402;2022-09-09T00:40:51;18.10;67.96
65854;DHT22;52627;48.838;2.402;2022-09-09T00:43:25;18.08;67.99
65854;DHT22;52627;48.838;2.402;2022-09-09T00:46:21;18.06;68.02
65854;DHT22;52627;48.838;2.402;2022-09-09T00:49:18;18.03;68.10
65854;DHT22;52627;48.838;2.402;2022-09-09T00:52:08;18.00;68.22
65854;DHT22;52627;48.838;2.402;2022-09-09T00:57:40;17.95;68.37
65854;DHT22;52627;48.838;2.402;2022-09-09T01:11:36;17.85;68.80
65854;DHT22;52627;48.838;2.402;2022-09-09T01:14:18;17.82;68.93
65854;DHT22;52627;48.838;2.402;2022-09-09T01:20:36;17.78;69.10
65854;DHT22;52627;48.838;2.402;2022-09-09T01:28:11;17.75;69.24
65854;DHT22;52627;48.838;2.402;2022-09-09T01:30:43;17.74;69.30
65854;DHT22;52627;48.838;2.402;2022-09-09T01:33:12;17.72;69.33
65854;DHT22;52627;48.838;2.402;2022-09-09T01:35:46;17.74;69.37
65854;DHT22;52627;48.838;2.402;2022-09-09T01:38:21;17.74;69.40
65854;DHT22;52627;48.838;2.402;2022-09-09T01:40:51;17.74;69.40
65854;DHT22;52627;48.838;2.402;2022-09-09T01:43:20;17.74;69.45
65854;DHT22;52627;48.838;2.402;2022-09-09T01:45:49;17.75;69.49
65854;DHT22;52627;48.838;2.402;2022-09-09T01:48:21;17.75;69.55
65854;DHT22;52627;48.838;2.402;2022-09-09T01:50:51;17.74;69.61
65854;DHT22;52627;48.838;2.402;2022-09-09T01:53:19;17.73;69.63
65854;DHT22;52627;48.838;2.402;2022-09-09T02:04:45;17.69;69.81
65854;DHT22;52627;48.838;2.402;2022-09-09T02:10:17;17.67;69.91
65854;DHT22;52627;48.838;2.402;2022-09-09T02:12:50;17.67;69.95
65854;DHT22;52627;48.838;2.402;2022-09-09T02:15:30;17.66;69.98
65854;DHT22;52627;48.838;2.402;2022-09-09T02:18:10;17.66;70.00
65854;DHT22;52627;48.838;2.402;2022-09-09T02:20:40;17.64;70.08
65854;DHT22;52627;48.838;2.402;2022-09-09T02:23:10;17.63;70.10
65854;DHT22;52627;48.838;2.402;2022-09-09T02:25:39;17.62;70.18
65854;DHT22;52627;48.838;2.402;2022-09-09T02:28:08;17.60;70.24
65854;DHT22;52627;48.838;2.402;2022-09-09T02:30:37;17.58;70.28
65854;DHT22;52627;48.838;2.402;2022-09-09T02:33:07;17.55;70.30
65854;DHT22;52627;48.838;2.402;2022-09-09T02:35:37;17.54;70.33
65854;DHT22;52627;48.838;2.402;2022-09-09T02:38:08;17.52;70.40
65854;DHT22;52627;48.838;2.402;2022-09-09T02:40:39;17.50;70.50
65854;DHT22;52627;48.838;2.402;2022-09-09T02:43:07;17.49;70.60
65854;DHT22;52627;48.838;2.402;2022-09-09T02:45:36;17.48;70.60
65854;DHT22;52627;48.838;2.402;2022-09-09T02:48:20;17.47;70.63
65854;DHT22;52627;48.838;2.402;2022-09-09T02:51:23;17.48;70.73
65854;DHT22;52627;48.838;2.402;2022-09-09T02:54:17;17.44;70.80
65854;DHT22;52627;48.838;2.402;2022-09-09T02:57:05;17.45;70.80
65854;DHT22;52627;48.838;2.402;2022-09-09T02:59:38;17.45;70.83
65854;DHT22;52627;48.838;2.402;2022-09-09T03:02:06;17.46;70.84
65854;DHT22;52627;48.838;2.402;2022-09-09T03:04:34;17.46;70.90
65854;DHT22;52627;48.838;2.402;2022-09-09T03:07:01;17.45;70.93
65854;DHT22;52627;48.838;2.402;2022-09-09T03:09:30;17.45;71.00
65854;DHT22;52627;48.838;2.402;2022-09-09T03:11:59;17.47;71.02
65854;DHT22;52627;48.838;2.402;2022-09-09T03:14:27;17.46;71.06
65854;DHT22;52627;48.838;2.402;2022-09-09T03:16:54;17.47;71.10
65854;DHT22;52627;48.838;2.402;2022-09-09T03:19:23;17.47;71.14
65854;DHT22;52627;48.838;2.402;2022-09-09T03:21:51;17.47;71.20
65854;DHT22;52627;48.838;2.402;2022-09-09T03:24:19;17.44;71.36
65854;DHT22;52627;48.838;2.402;2022-09-09T03:26:46;17.42;71.40
65854;DHT22;52627;48.838;2.402;2022-09-09T03:29:14;17.41;71.41
65854;DHT22;52627;48.838;2.402;2022-09-09T03:31:42;17.38;71.46
65854;DHT22;52627;48.838;2.402;2022-09-09T03:34:11;17.36;71.51
65854;DHT22;52627;48.838;2.402;2022-09-09T03:36:38;17.36;71.57
65854;DHT22;52627;48.838;2.402;2022-09-09T03:39:06;17.36;71.60
65854;DHT22;52627;48.838;2.402;2022-09-09T03:41:33;17.36;71.58
65854;DHT22;52627;48.838;2.402;2022-09-09T03:44:01;17.37;71.60
65854;DHT22;52627;48.838;2.402;2022-09-09T03:46:28;17.37;71.61
65854;DHT22;52627;48.838;2.402;2022-09-09T03:48:56;17.37;71.68
65854;DHT22;52627;48.838;2.402;2022-09-09T03:51:24;17.38;71.71
65854;DHT22;52627;48.838;2.402;2022-09-09T03:53:51;17.36;71.74
65854;DHT22;52627;48.838;2.402;2022-09-09T03:56:24;17.36;71.83
65854;DHT22;52627;48.838;2.402;2022-09-09T03:58:51;17.34;71.83
65854;DHT22;52627;48.838;2.402;2022-09-09T04:01:19;17.35;71.87
65854;DHT22;52627;48.838;2.402;2022-09-09T04:03:46;17.34;71.90
65854;DHT22;52627;48.838;2.402;2022-09-09T04:06:14;17.34;71.92
65854;DHT22;52627;48.838;2.402;2022-09-09T04:08:42;17.32;72.03
65854;DHT22;52627;48.838;2.402;2022-09-09T04:11:09;17.32;72.03
65854;DHT22;52627;48.838;2.402;2022-09-09T04:13:37;17.31;72.02
65854;DHT22;52627;48.838;2.402;2022-09-09T04:16:06;17.31;72.09
65854;DHT22;52627;48.838;2.402;2022-09-09T04:18:36;17.31;72.17
65854;DHT22;52627;48.838;2.402;2022-09-09T04:21:04;17.30;72.18
65854;DHT22;52627;48.838;2.402;2022-09-09T04:23:33;17.27;72.24
65854;DHT22;52627;48.838;2.402;2022-09-09T04:26:02;17.27;72.30
65854;DHT22;52627;48.838;2.402;2022-09-09T04:28:32;17.26;72.33
65854;DHT22;52627;48.838;2.402;2022-09-09T04:31:07;17.24;72.40
65854;DHT22;52627;48.838;2.402;2022-09-09T04:33:38;17.23;72.45
65854;DHT22;52627;48.838;2.402;2022-09-09T04:36:06;17.22;72.50
65854;DHT22;52627;48.838;2.402;2022-09-09T04:38:35;17.20;72.54
65854;DHT22;52627;48.838;2.402;2022-09-09T04:41:03;17.19;72.59
65854;DHT22;52627;48.838;2.402;2022-09-09T04:43:31;17.17;72.68
65854;DHT22;52627;48.838;2.402;2022-09-09T04:45:58;17.16;72.75
65854;DHT22;52627;48.838;2.402;2022-09-09T04:48:26;17.14;72.82
65854;DHT22;52627;48.838;2.402;2022-09-09T04:50:55;17.15;72.86
65854;DHT22;52627;48.838;2.402;2022-09-09T04:53:24;17.14;72.90
65854;DHT22;52627;48.838;2.402;2022-09-09T04:56:05;17.13;72.93
65854;DHT22;52627;48.838;2.402;2022-09-09T04:58:41;17.13;73.03
65854;DHT22;52627;48.838;2.402;2022-09-09T05:01:14;17.12;73.02
65854;DHT22;52627;48.838;2.402;2022-09-09T05:03:44;17.11;73.03
65854;DHT22;52627;48.838;2.402;2022-09-09T05:06:14;17.11;73.12
65854;DHT22;52627;48.838;2.402;2022-09-09T05:08:44;17.09;73.15
65854;DHT22;52627;48.838;2.402;2022-09-09T05:13:51;17.08;73.23
65854;DHT22;52627;48.838;2.402;2022-09-09T05:16:19;17.05;73.29
65854;DHT22;52627;48.838;2.402;2022-09-09T05:18:48;17.04;73.28
65854;DHT22;52627;48.838;2.402;2022-09-09T05:21:18;17.03;73.31
65854;DHT22;52627;48.838;2.402;2022-09-09T05:23:48;17.03;73.35
65854;DHT22;52627;48.838;2.402;2022-09-09T05:26:19;17.03;73.40
65854;DHT22;52627;48.838;2.402;2022-09-09T05:28:48;17.03;73.46
65854;DHT22;52627;48.838;2.402;2022-09-09T05:31:16;17.04;73.50
65854;DHT22;52627;48.838;2.402;2022-09-09T05:33:46;17.03;73.53
65854;DHT22;52627;48.838;2.402;2022-09-09T05:36:17;17.05;73.62
65854;DHT22;52627;48.838;2.402;2022-09-09T05:38:47;17.06;73.63
65854;DHT22;52627;48.838;2.402;2022-09-09T05:41:16;17.06;73.72
65854;DHT22;52627;48.838;2.402;2022-09-09T05:43:44;17.06;73.76
65854;DHT22;52627;48.838;2.402;2022-09-09T05:46:15;17.08;73.78
65854;DHT22;52627;48.838;2.402;2022-09-09T05:48:47;17.11;73.80
65854;DHT22;52627;48.838;2.402;2022-09-09T05:51:19;17.12;73.80
65854;DHT22;52627;48.838;2.402;2022-09-09T05:53:52;17.15;73.81
65854;DHT22;52627;48.838;2.402;2022-09-09T05:56:23;17.16;73.92
65854;DHT22;52627;48.838;2.402;2022-09-09T05:58:56;17.17;73.97
65854;DHT22;52627;48.838;2.402;2022-09-09T06:01:27;17.19;74.00
65854;DHT22;52627;48.838;2.402;2022-09-09T06:03:58;17.22;74.01
65854;DHT22;52627;48.838;2.402;2022-09-09T06:06:27;17.24;74.01
65854;DHT22;52627;48.838;2.402;2022-09-09T06:09:03;17.27;74.09
65854;DHT22;52627;48.838;2.402;2022-09-09T06:11:40;17.28;74.10
65854;DHT22;52627;48.838;2.402;2022-09-09T06:14:08;17.30;74.10
65854;DHT22;52627;48.838;2.402;2022-09-09T06:16:36;17.31;74.10
65854;DHT22;52627;48.838;2.402;2022-09-09T06:19:05;17.32;74.09
65854;DHT22;52627;48.838;2.402;2022-09-09T06:21:36;17.33;74.14
65854;DHT22;52627;48.838;2.402;2022-09-09T06:24:04;17.36;74.10
65854;DHT22;52627;48.838;2.402;2022-09-09T06:26:33;17.40;74.10
65854;DHT22;52627;48.838;2.402;2022-09-09T06:29:03;17.44;74.08
65854;DHT22;52627;48.838;2.402;2022-09-09T06:31:33;17.47;74.04
65854;DHT22;52627;48.838;2.402;2022-09-09T06:34:04;17.51;74.00
65854;DHT22;52627;48.838;2.402;2022-09-09T06:36:35;17.56;74.00
65854;DHT22;52627;48.838;2.402;2022-09-09T06:39:05;17.60;73.98
65854;DHT22;52627;48.838;2.402;2022-09-09T06:41:40;17.63;73.94
65854;DHT22;52627;48.838;2.402;2022-09-09T06:44:10;17.67;73.90
65854;DHT22;52627;48.838;2.402;2022-09-09T06:46:40;17.69;73.89
65854;DHT22;52627;48.838;2.402;2022-09-09T06:49:08;17.69;73.89
65854;DHT22;52627;48.838;2.402;2022-09-09T06:51:37;17.73;73.81
65854;DHT22;52627;48.838;2.402;2022-09-09T06:54:10;17.77;73.72
65854;DHT22;52627;48.838;2.402;2022-09-09T06:56:39;17.81;73.66
65854;DHT22;52627;48.838;2.402;2022-09-09T06:59:09;17.86;73.55
65854;DHT22;52627;48.838;2.402;2022-09-09T07:01:39;17.92;73.44
65854;DHT22;52627;48.838;2.402;2022-09-09T07:04:10;18.00;73.34
65854;DHT22;52627;48.838;2.402;2022-09-09T07:06:41;18.10;73.21
65854;DHT22;52627;48.838;2.402;2022-09-09T07:09:13;18.20;73.03
65854;DHT22;52627;48.838;2.402;2022-09-09T07:11:44;18.29;72.80
65854;DHT22;52627;48.838;2.402;2022-09-09T07:14:14;18.33;72.70
65854;DHT22;52627;48.838;2.402;2022-09-09T07:16:42;18.35;72.57
65854;DHT22;52627;48.838;2.402;2022-09-09T07:19:12;18.41;72.46
65854;DHT22;52627;48.838;2.402;2022-09-09T07:21:41;18.46;72.33
65854;DHT22;52627;48.838;2.402;2022-09-09T07:24:10;18.49;72.20
65854;DHT22;52627;48.838;2.402;2022-09-09T07:26:39;18.52;72.09
65854;DHT22;52627;48.838;2.402;2022-09-09T07:29:08;18.56;71.88
65854;DHT22;52627;48.838;2.402;2022-09-09T07:31:36;18.59;71.71
65854;DHT22;52627;48.838;2.402;2022-09-09T07:34:07;18.65;71.66
65854;DHT22;52627;48.838;2.402;2022-09-09T07:36:36;18.73;71.54
65854;DHT22;52627;48.838;2.402;2022-09-09T07:39:06;18.79;71.36
65854;DHT22;52627;48.838;2.402;2022-09-09T07:41:38;18.88;71.21
65854;DHT22;52627;48.838;2.402;2022-09-09T07:44:12;18.96;71.04
65854;DHT22;52627;48.838;2.402;2022-09-09T07:46:43;19.01;70.72
65854;DHT22;52627;48.838;2.402;2022-09-09T07:49:12;19.03;70.44
65854;DHT22;52627;48.838;2.402;2022-09-09T07:51:41;19.03;70.19
65854;DHT22;52627;48.838;2.402;2022-09-09T07:54:13;19.06;70.13
65854;DHT22;52627;48.838;2.402;2022-09-09T07:56:43;19.07;69.89
65854;DHT22;52627;48.838;2.402;2022-09-09T07:59:10;19.05;69.70
65854;DHT22;52627;48.838;2.402;2022-09-09T08:01:39;19.02;69.55
65854;DHT22;52627;48.838;2.402;2022-09-09T08:04:14;18.98;69.42
65854;DHT22;52627;48.838;2.402;2022-09-09T08:06:46;18.99;69.31
65854;DHT22;52627;48.838;2.402;2022-09-09T08:09:20;19.01;69.18
65854;DHT22;52627;48.838;2.402;2022-09-09T08:11:48;19.01;68.91
65854;DHT22;52627;48.838;2.402;2022-09-09T08:14:15;19.01;68.70
65854;DHT22;52627;48.838;2.402;2022-09-09T08:16:44;19.02;68.56
65854;DHT22;52627;48.838;2.402;2022-09-09T08:19:15;19.03;68.52
65854;DHT22;52627;48.838;2.402;2022-09-09T08:21:43;19.03;68.48
65854;DHT22;52627;48.838;2.402;2022-09-09T08:24:12;19.04;68.47
65854;DHT22;52627;48.838;2.402;2022-09-09T08:26:43;19.03;68.32
65854;DHT22;52627;48.838;2.402;2022-09-09T08:29:14;19.01;68.24
65854;DHT22;52627;48.838;2.402;2022-09-09T08:31:47;19.00;68.10
65854;DHT22;52627;48.838;2.402;2022-09-09T08:34:17;19.01;67.98
65854;DHT22;52627;48.838;2.402;2022-09-09T08:36:47;19.02;67.86
65854;DHT22;52627;48.838;2.402;2022-09-09T08:39:18;19.06;67.70
65854;DHT22;52627;48.838;2.402;2022-09-09T08:53:21;19.79;66.77
65854;DHT22;52627;48.838;2.402;2022-09-09T08:55:56;19.86;66.79
65854;DHT22;52627;48.838;2.402;2022-09-09T08:58:31;19.95;66.59
65854;DHT22;52627;48.838;2.402;2022-09-09T09:01:24;19.98;66.45
65854;DHT22;52627;48.838;2.402;2022-09-09T09:13:12;20.22;65.68
65854;DHT22;52627;48.838;2.402;2022-09-09T09:15:55;20.34;65.43
65854;DHT22;52627;48.838;2.402;2022-09-09T09:18:29;20.43;65.25
65854;DHT22;52627;48.838;2.402;2022-09-09T09:21:11;20.53;65.00
65854;DHT22;52627;48.838;2.402;2022-09-09T09:23:48;20.65;64.95
65854;DHT22;52627;48.838;2.402;2022-09-09T09:26:25;20.75;64.57
65854;DHT22;52627;48.838;2.402;2022-09-09T09:28:58;20.75;64.63
65854;DHT22;52627;48.838;2.402;2022-09-09T09:31:26;20.78;64.50
65854;DHT22;52627;48.838;2.402;2022-09-09T09:33:54;20.80;64.33
65854;DHT22;52627;48.838;2.402;2022-09-09T09:36:24;20.82;64.11
65854;DHT22;52627;48.838;2.402;2022-09-09T09:39:21;20.83;63.80
65854;DHT22;52627;48.838;2.402;2022-09-09T09:42:12;20.85;63.79
65854;DHT22;52627;48.838;2.402;2022-09-09T09:44:47;20.87;63.62
65854;DHT22;52627;48.838;2.402;2022-09-09T09:47:16;20.86;63.61
65854;DHT22;52627;48.838;2.402;2022-09-09T09:49:54;20.82;63.43
65854;DHT22;52627;48.838;2.402;2022-09-09T09:52:26;20.77;63.24
65854;DHT22;52627;48.838;2.402;2022-09-09T09:54:57;20.74;63.25
65854;DHT22;52627;48.838;2.402;2022-09-09T09:57:31;20.69;63.18
65854;DHT22;52627;48.838;2.402;2022-09-09T10:00:01;20.66;63.10
65854;DHT22;52627;48.838;2.402;2022-09-09T10:02:42;20.60;62.95
65854;DHT22;52627;48.838;2.402;2022-09-09T10:05:22;20.56;62.93
65854;DHT22;52627;48.838;2.402;2022-09-09T10:08:15;20.62;62.89
65854;DHT22;52627;48.838;2.402;2022-09-09T10:19:34;21.07;62.42
65854;DHT22;52627;48.838;2.402;2022-09-09T10:34:45;21.22;61.58
65854;DHT22;52627;48.838;2.402;2022-09-09T10:57:39;22.12;60.14
65854;DHT22;52627;48.838;2.402;2022-09-09T11:00:22;22.24;59.81
65854;DHT22;52627;48.838;2.402;2022-09-09T11:02:56;22.23;59.52
65854;DHT22;52627;48.838;2.402;2022-09-09T11:05:38;22.21;59.30
65854;DHT22;52627;48.838;2.402;2022-09-09T11:08:13;22.14;59.19
65854;DHT22;52627;48.838;2.402;2022-09-09T11:13:49;21.89;59.91
65854;DHT22;52627;48.838;2.402;2022-09-09T11:19:18;21.78;60.48
65854;DHT22;52627;48.838;2.402;2022-09-09T11:30:19;22.08;60.01
65854;DHT22;52627;48.838;2.402;2022-09-09T11:39:47;22.60;58.89
65854;DHT22;52627;48.838;2.402;2022-09-09T11:42:27;22.62;58.38
65854;DHT22;52627;48.838;2.402;2022-09-09T11:44:55;22.70;58.06
65854;DHT22;52627;48.838;2.402;2022-09-09T11:47:24;22.80;57.84
65854;DHT22;52627;48.838;2.402;2022-09-09T11:52:45;22.56;58.76
65854;DHT22;52627;48.838;2.402;2022-09-09T11:57:59;22.21;60.36
65854;DHT22;52627;48.838;2.402;2022-09-09T12:03:45;21.98;60.31
65854;DHT22;52627;48.838;2.402;2022-09-09T12:06:24;21.83;60.41
65854;DHT22;52627;48.838;2.402;2022-09-09T12:08:56;21.64;60.68
65854;DHT22;52627;48.838;2.402;2022-09-09T12:11:35;21.45;60.86
65854;DHT22;52627;48.838;2.402;2022-09-09T12:14:02;21.38;60.95
65854;DHT22;52627;48.838;2.402;2022-09-09T12:16:34;21.36;61.11
65854;DHT22;52627;48.838;2.402;2022-09-09T12:19:06;21.34;61.19
65854;DHT22;52627;48.838;2.402;2022-09-09T12:28:53;21.06;61.37
65854;DHT22;52627;48.838;2.402;2022-09-09T12:34:14;20.98;61.76
65854;DHT22;52627;48.838;2.402;2022-09-09T12:36:46;20.93;62.74
65854;DHT22;52627;48.838;2.402;2022-09-09T12:39:33;20.83;64.50
65854;DHT22;52627;48.838;2.402;2022-09-09T12:42:14;20.62;65.60
65854;DHT22;52627;48.838;2.402;2022-09-09T12:44:52;20.58;65.47
65854;DHT22;52627;48.838;2.402;2022-09-09T12:47:35;20.61;65.52
65854;DHT22;52627;48.838;2.402;2022-09-09T12:50:19;20.64;65.43
65854;DHT22;52627;48.838;2.402;2022-09-09T12:52:50;20.65;65.62
65854;DHT22;52627;48.838;2.402;2022-09-09T12:55:21;20.63;65.67
65854;DHT22;52627;48.838;2.402;2022-09-09T12:57:54;20.61;65.98
65854;DHT22;52627;48.838;2.402;2022-09-09T13:00:23;20.56;66.42
65854;DHT22;52627;48.838;2.402;2022-09-09T13:02:56;20.52;66.79
65854;DHT22;52627;48.838;2.402;2022-09-09T13:05:36;20.42;66.70
65854;DHT22;52627;48.838;2.402;2022-09-09T13:08:09;20.34;66.88
65854;DHT22;52627;48.838;2.402;2022-09-09T13:13:24;20.18;68.06
65854;DHT22;52627;48.838;2.402;2022-09-09T13:15:58;20.07;68.58
65854;DHT22;52627;48.838;2.402;2022-09-09T13:18:32;19.96;68.91
65854;DHT22;52627;48.838;2.402;2022-09-09T13:21:02;19.84;68.71
65854;DHT22;52627;48.838;2.402;2022-09-09T13:23:31;19.75;68.82
65854;DHT22;52627;48.838;2.402;2022-09-09T13:26:24;19.63;69.46
65854;DHT22;52627;48.838;2.402;2022-09-09T13:28:53;19.44;70.42
65854;DHT22;52627;48.838;2.402;2022-09-09T13:33:54;19.06;71.65
65854;DHT22;52627;48.838;2.402;2022-09-09T13:36:28;18.88;71.90
65854;DHT22;52627;48.838;2.402;2022-09-09T13:38:59;18.75;72.27
65854;DHT22;52627;48.838;2.402;2022-09-09T13:41:32;18.64;72.67
65854;DHT22;52627;48.838;2.402;2022-09-09T13:44:03;18.53;72.81
65854;DHT22;52627;48.838;2.402;2022-09-09T13:46:37;18.42;72.70
65854;DHT22;52627;48.838;2.402;2022-09-09T13:54:12;18.28;72.99
65854;DHT22;52627;48.838;2.402;2022-09-09T13:56:42;18.31;73.04
65854;DHT22;52627;48.838;2.402;2022-09-09T13:59:11;18.32;73.34
65854;DHT22;52627;48.838;2.402;2022-09-09T14:01:41;18.37;73.33
65854;DHT22;52627;48.838;2.402;2022-09-09T14:04:09;18.46;73.41
65854;DHT22;52627;48.838;2.402;2022-09-09T14:06:38;18.53;73.44
65854;DHT22;52627;48.838;2.402;2022-09-09T14:09:07;18.59;73.56
65854;DHT22;52627;48.838;2.402;2022-09-09T14:11:40;18.63;73.72
65854;DHT22;52627;48.838;2.402;2022-09-09T14:14:09;18.66;73.83
65854;DHT22;52627;48.838;2.402;2022-09-09T14:16:37;18.71;74.02
65854;DHT22;52627;48.838;2.402;2022-09-09T14:19:04;18.76;74.19
65854;DHT22;52627;48.838;2.402;2022-09-09T14:21:32;18.82;74.32
65854;DHT22;52627;48.838;2.402;2022-09-09T14:23:59;18.90;74.47
65854;DHT22;52627;48.838;2.402;2022-09-09T14:26:27;19.00;74.61
65854;DHT22;52627;48.838;2.402;2022-09-09T14:28:56;19.08;74.58
65854;DHT22;52627;48.838;2.402;2022-09-09T14:31:25;19.18;74.60
65854;DHT22;52627;48.838;2.402;2022-09-09T14:33:52;19.29;74.60
65854;DHT22;52627;48.838;2.402;2022-09-09T14:36:20;19.35;74.67
65854;DHT22;52627;48.838;2.402;2022-09-09T14:38:48;19.40;74.63
65854;DHT22;52627;48.838;2.402;2022-09-09T14:41:16;19.43;74.71
65854;DHT22;52627;48.838;2.402;2022-09-09T14:43:49;19.47;74.73
65854;DHT22;52627;48.838;2.402;2022-09-09T14:46:17;19.53;74.63
65854;DHT22;52627;48.838;2.402;2022-09-09T14:48:48;19.58;74.67
65854;DHT22;52627;48.838;2.402;2022-09-09T14:51:17;19.63;74.61
65854;DHT22;52627;48.838;2.402;2022-09-09T14:53:51;19.70;74.49
65854;DHT22;52627;48.838;2.402;2022-09-09T14:56:21;19.76;74.27
65854;DHT22;52627;48.838;2.402;2022-09-09T14:58:54;19.83;74.08
65854;DHT22;52627;48.838;2.402;2022-09-09T15:01:23;19.88;73.90
65854;DHT22;52627;48.838;2.402;2022-09-09T15:03:55;19.93;73.90
65854;DHT22;52627;48.838;2.402;2022-09-09T15:06:25;20.01;73.84
65854;DHT22;52627;48.838;2.402;2022-09-09T15:08:56;20.06;73.66
65854;DHT22;52627;48.838;2.402;2022-09-09T15:11:28;20.08;73.46
65854;DHT22;52627;48.838;2.402;2022-09-09T15:14:05;20.17;73.27
65854;DHT22;52627;48.838;2.402;2022-09-09T15:16:35;20.25;73.01
65854;DHT22;52627;48.838;2.402;2022-09-09T15:19:02;20.37;72.84
65854;DHT22;52627;48.838;2.402;2022-09-09T15:21:31;20.48;72.57
65854;DHT22;52627;48.838;2.402;2022-09-09T15:24:01;20.55;72.31
65854;DHT22;52627;48.838;2.402;2022-09-09T15:26:29;20.62;72.26
65854;DHT22;52627;48.838;2.402;2022-09-09T15:28:57;20.69;72.06
65854;DHT22;52627;48.838;2.402;2022-09-09T15:31:27;20.76;71.93
65854;DHT22;52627;48.838;2.402;2022-09-09T15:33:58;20.80;71.67
65854;DHT22;52627;48.838;2.402;2022-09-09T15:36:30;20.82;71.43
65854;DHT22;52627;48.838;2.402;2022-09-09T15:39:02;20.83;71.19
65854;DHT22;52627;48.838;2.402;2022-09-09T15:41:32;20.80;70.97
65854;DHT22;52627;48.838;2.402;2022-09-09T15:44:00;20.75;70.80
65854;DHT22;52627;48.838;2.402;2022-09-09T15:46:36;20.72;70.70
65854;DHT22;52627;48.838;2.402;2022-09-09T15:49:18;20.67;70.60
65854;DHT22;52627;48.838;2.402;2022-09-09T15:54:31;20.57;70.33
65854;DHT22;52627;48.838;2.402;2022-09-09T15:57:03;20.52;70.29
65854;DHT22;52627;48.838;2.402;2022-09-09T15:59:32;20.49;70.18
65854;DHT22;52627;48.838;2.402;2022-09-09T16:02:00;20.44;70.10
65854;DHT22;52627;48.838;2.402;2022-09-09T16:04:28;20.41;70.08
65854;DHT22;52627;48.838;2.402;2022-09-09T16:09:27;20.44;69.95
65854;DHT22;52627;48.838;2.402;2022-09-09T16:11:56;20.43;69.92
65854;DHT22;52627;48.838;2.402;2022-09-09T16:14:28;20.43;69.91
65854;DHT22;52627;48.838;2.402;2022-09-09T16:17:01;20.41;69.90
65854;DHT22;52627;48.838;2.402;2022-09-09T16:19:31;20.37;69.96
65854;DHT22;52627;48.838;2.402;2022-09-09T16:22:00;20.36;70.02
65854;DHT22;52627;48.838;2.402;2022-09-09T16:24:29;20.31;70.10
65854;DHT22;52627;48.838;2.402;2022-09-09T16:26:57;20.30;70.12
65854;DHT22;52627;48.838;2.402;2022-09-09T16:29:24;20.28;70.16
65854;DHT22;52627;48.838;2.402;2022-09-09T16:31:54;20.24;70.19
65854;DHT22;52627;48.838;2.402;2022-09-09T16:34:28;20.19;70.19
65854;DHT22;52627;48.838;2.402;2022-09-09T16:36:56;20.17;70.22
65854;DHT22;52627;48.838;2.402;2022-09-09T16:39:23;20.19;70.23
65854;DHT22;52627;48.838;2.402;2022-09-09T16:41:51;20.21;70.28
65854;DHT22;52627;48.838;2.402;2022-09-09T16:44:19;20.25;70.35
65854;DHT22;52627;48.838;2.402;2022-09-09T16:46:47;20.27;70.40
65854;DHT22;52627;48.838;2.402;2022-09-09T16:49:25;20.25;70.43
65854;DHT22;52627;48.838;2.402;2022-09-09T16:51:56;20.21;70.43
65854;DHT22;52627;48.838;2.402;2022-09-09T16:54:25;20.15;70.44
65854;DHT22;52627;48.838;2.402;2022-09-09T16:56:54;20.09;70.47
65854;DHT22;52627;48.838;2.402;2022-09-09T16:59:22;20.04;70.50
65854;DHT22;52627;48.838;2.402;2022-09-09T17:01:50;19.99;70.50
65854;DHT22;52627;48.838;2.402;2022-09-09T17:04:19;19.96;70.50
65854;DHT22;52627;48.838;2.402;2022-09-09T17:06:53;19.92;70.50
65854;DHT22;52627;48.838;2.402;2022-09-09T17:09:22;19.91;70.46
65854;DHT22;52627;48.838;2.402;2022-09-09T17:11:50;19.88;70.41
65854;DHT22;52627;48.838;2.402;2022-09-09T17:14:21;19.85;70.40
65854;DHT22;52627;48.838;2.402;2022-09-09T17:16:49;19.84;70.39
65854;DHT22;52627;48.838;2.402;2022-09-09T17:19:17;19.80;70.30
65854;DHT22;52627;48.838;2.402;2022-09-09T17:21:45;19.76;70.24
65854;DHT22;52627;48.838;2.402;2022-09-09T17:24:34;19.74;70.23
65854;DHT22;52627;48.838;2.402;2022-09-09T17:27:05;19.71;70.22
65854;DHT22;52627;48.838;2.402;2022-09-09T17:29:33;19.68;70.20
65854;DHT22;52627;48.838;2.402;2022-09-09T17:32:03;19.64;70.13
65854;DHT22;52627;48.838;2.402;2022-09-09T17:34:33;19.60;70.10
65854;DHT22;52627;48.838;2.402;2022-09-09T17:37:01;19.56;70.05
65854;DHT22;52627;48.838;2.402;2022-09-09T17:39:29;19.51;70.01
65854;DHT22;52627;48.838;2.402;2022-09-09T17:41:56;19.48;70.07
65854;DHT22;52627;48.838;2.402;2022-09-09T17:44:24;19.45;70.26
65854;DHT22;52627;48.838;2.402;2022-09-09T17:46:51;19.43;70.50
65854;DHT22;52627;48.838;2.402;2022-09-09T17:49:19;19.39;70.94
65854;DHT22;52627;48.838;2.402;2022-09-09T17:51:46;19.33;71.27
65854;DHT22;52627;48.838;2.402;2022-09-09T17:54:15;19.28;71.73
65854;DHT22;52627;48.838;2.402;2022-09-09T17:56:46;19.18;72.56
65854;DHT22;52627;48.838;2.402;2022-09-09T17:59:15;19.04;72.98
65854;DHT22;52627;48.838;2.402;2022-09-09T18:01:44;18.92;73.17
65854;DHT22;52627;48.838;2.402;2022-09-09T18:04:16;18.83;73.19
65854;DHT22;52627;48.838;2.402;2022-09-09T18:06:45;18.76;73.18
65854;DHT22;52627;48.838;2.402;2022-09-09T18:09:25;18.70;73.16
65854;DHT22;52627;48.838;2.402;2022-09-09T18:11:54;18.65;73.32
65854;DHT22;52627;48.838;2.402;2022-09-09T18:14:25;18.62;73.52
65854;DHT22;52627;48.838;2.402;2022-09-09T18:16:58;18.58;73.66
65854;DHT22;52627;48.838;2.402;2022-09-09T18:19:27;18.58;73.80
65854;DHT22;52627;48.838;2.402;2022-09-09T18:21:59;18.55;73.98
65854;DHT22;52627;48.838;2.402;2022-09-09T18:24:29;18.52;73.99
65854;DHT22;52627;48.838;2.402;2022-09-09T18:26:57;18.51;74.20
65854;DHT22;52627;48.838;2.402;2022-09-09T18:29:25;18.49;74.42
65854;DHT22;52627;48.838;2.402;2022-09-09T18:31:53;18.47;74.63
65854;DHT22;52627;48.838;2.402;2022-09-09T18:34:22;18.46;74.77
65854;DHT22;52627;48.838;2.402;2022-09-09T18:36:52;18.43;75.03
65854;DHT22;52627;48.838;2.402;2022-09-09T18:39:22;18.41;75.10
65854;DHT22;52627;48.838;2.402;2022-09-09T18:41:54;18.38;75.19